Time;durP1;ratioP1;P1;durP2;ratioP2;P2;SDS_P1;SDS_P2;PMS_P1;PMS_P2;Temp;Humidity;BMP_temperature;BMP_pressure;BME280_temperature;BME280_humidity;BME280_pressure;Samples;Min_cycle;Max_cycle;Signal;HPM_P1;HPM_P2
2024/01/15 00:06:01;;;;;;;7.97;7.18;;;;;;;;;;5054431;28;20675;-63
2024/01/15 00:08:28;;;;;;;8.02;6.63;;;;;;;;;;5053911;28;20221;-62
2024/01/15 00:10:55;;;;;;;8.23;6.57;;;;;;;;;;5054169;28;20622;-63
2024/01/15 00:13:22;;;;;;;8.15;6.43;;;;;;;;;;5053904;28;20679;-62
2024/01/15 00:15:50;;;;;;;8.05;6.68;;;;;;;;;;5054023;28;20342;-62
2024/01/15 00:18:17;;;;;;;7.60;6.78;;;;;;;;;;5054098;28;20277;-62
2024/01/15 00:20:44;;;;;;;8.25;7.43;;;;;;;;;;5053632;28;20229;-63
2024/01/15 00:23:11;;;;;;;7.38;6.68;;;;;;;;;;5053950;28;20309;-63
2024/01/15 00:25:38;;;;;;;8.05;6.57;;;;;;;;;;5053753;28;20289;-63
2024/01/15 00:28:05;;;;;;;7.68;5.65;;;;;;;;;;5053703;28;20217;-63
2024/01/15 00:30:32;;;;;;;8.48;6.50;;;;;;;;;;5053695;28;20277;-62
2024/01/15 00:33:01;;;;;;;8.73;6.70;;;;;;;;;;5053579;28;20192;-63
2024/01/15 00:35:27;;;;;;;7.72;6.85;;;;;;;;;;5053399;28;20403;-63
2024/01/15 00:37:54;;;;;;;7.90;7.10;;;;;;;;;;5053696;28;20276;-63
2024/01/15 00:40:21;;;;;;;9.43;7.22;;;;;;;;;;5053624;28;20556;-63
2024/01/15 00:42:48;;;;;;;7.93;7.13;;;;;;;;;;5053557;28;20661;-62
2024/01/15 00:45:15;;;;;;;8.02;6.97;;;;;;;;;;5053426;28;20190;-63
2024/01/15 00:47:42;;;;;;;7.47;6.55;;;;;;;;;;5053237;28;20210;-63
2024/01/15 00:50:11;;;;;;;9.30;7.28;;;;;;;;;;5053268;28;20190;-62
2024/01/15 00:52:38;;;;;;;10.10;6.95;;;;;;;;;;5053177;28;20653;-63
2024/01/15 00:55:05;;;;;;;10.23;7.22;;;;;;;;;;5053324;28;20281;-63
2024/01/15 00:57:32;;;;;;;7.63;6.70;;;;;;;;;;5053212;28;20277;-62
2024/01/15 00:59:59;;;;;;;8.77;7.00;;;;;;;;;;5053140;28;20193;-62
2024/01/15 01:02:27;;;;;;;11.10;8.48;;;;;;;;;;5052656;28;20277;-62
2024/01/15 01:04:54;;;;;;;9.75;8.00;;;;;;;;;;5053490;28;20215;-63
2024/01/15 01:07:22;;;;;;;10.20;7.35;;;;;;;;;;5053062;28;20231;-63
2024/01/15 01:09:51;;;;;;;10.35;7.70;;;;;;;;;;5053059;28;20280;-63
2024/01/15 01:12:18;;;;;;;8.18;7.07;;;;;;;;;;5052994;28;20193;-62
2024/01/15 01:14:45;;;;;;;9.55;7.90;;;;;;;;;;5052927;28;20284;-62
2024/01/15 01:17:12;;;;;;;9.50;7.22;;;;;;;;;;5052838;28;20305;-63
2024/01/15 01:19:38;;;;;;;9.15;7.63;;;;;;;;;;5052761;28;20641;-63
2024/01/15 01:22:06;;;;;;;8.27;7.10;;;;;;;;;;5052692;28;20285;-62
2024/01/15 01:24:34;;;;;;;9.88;7.93;;;;;;;;;;5052942;28;20194;-63
2024/01/15 01:27:01;;;;;;;9.23;6.80;;;;;;;;;;5052789;28;20604;-62
2024/01/15 01:29:28;;;;;;;9.20;7.22;;;;;;;;;;5052734;28;20200;-63
2024/01/15 01:31:56;;;;;;;9.05;6.93;;;;;;;;;;5053013;28;20190;-63
2024/01/15 01:34:23;;;;;;;13.30;7.65;;;;;;;;;;5052921;28;20190;-63
2024/01/15 01:36:50;;;;;;;8.77;6.35;;;;;;;;;;5052826;28;20189;-63
2024/01/15 01:39:17;;;;;;;9.38;7.82;;;;;;;;;;5052767;28;20253;-63
2024/01/15 01:41:45;;;;;;;9.48;7.65;;;;;;;;;;5052668;28;20247;-62
2024/01/15 01:44:12;;;;;;;9.52;7.00;;;;;;;;;;5052616;28;20190;-63
2024/01/15 01:46:40;;;;;;;11.45;8.05;;;;;;;;;;5052714;28;20281;-63
2024/01/15 01:49:08;;;;;;;10.13;7.35;;;;;;;;;;5052624;28;20214;-63
2024/01/15 01:51:37;;;;;;;7.22;6.53;;;;;;;;;;5052706;28;20209;-63
2024/01/15 01:54:04;;;;;;;8.55;7.63;;;;;;;;;;5052596;28;20213;-63
2024/01/15 01:56:32;;;;;;;7.95;7.00;;;;;;;;;;5052430;28;20277;-62
2024/01/15 01:59:00;;;;;;;9.80;7.57;;;;;;;;;;5052727;28;20190;-62
2024/01/15 02:01:27;;;;;;;10.13;7.78;;;;;;;;;;5052608;28;20289;-63
2024/01/15 02:03:56;;;;;;;9.60;7.40;;;;;;;;;;5052604;28;20228;-63
2024/01/15 02:06:23;;;;;;;9.75;7.18;;;;;;;;;;5052412;28;20717;-63
2024/01/15 02:08:50;;;;;;;11.57;7.85;;;;;;;;;;5052293;28;20220;-63
2024/01/15 02:11:17;;;;;;;10.25;7.60;;;;;;;;;;5052350;28;20194;-63
2024/01/15 02:13:44;;;;;;;11.32;7.55;;;;;;;;;;5052602;28;20661;-63
2024/01/15 02:16:12;;;;;;;12.48;8.13;;;;;;;;;;5055750;28;20222;-63
2024/01/15 02:18:43;;;;;;;8.45;7.07;;;;;;;;;;5056232;28;20251;-63
2024/01/15 02:21:10;;;;;;;8.63;7.40;;;;;;;;;;5055938;28;20297;-63
2024/01/15 02:23:38;;;;;;;8.23;7.43;;;;;;;;;;5056008;28;20190;-63
2024/01/15 02:26:06;;;;;;;12.85;8.43;;;;;;;;;;5055990;28;20189;-63
2024/01/15 02:28:34;;;;;;;8.75;7.85;;;;;;;;;;5055800;28;20677;-63
2024/01/15 02:31:01;;;;;;;11.27;7.38;;;;;;;;;;5056010;28;20244;-63
2024/01/15 02:33:28;;;;;;;9.90;7.03;;;;;;;;;;5055854;28;20281;-63
2024/01/15 02:35:55;;;;;;;8.30;6.93;;;;;;;;;;5055825;28;20213;-63
2024/01/15 02:38:22;;;;;;;9.27;6.95;;;;;;;;;;5055708;28;20194;-63
2024/01/15 02:40:51;;;;;;;9.02;6.38;;;;;;;;;;5055852;28;20194;-63
2024/01/15 02:43:19;;;;;;;10.93;7.05;;;;;;;;;;5055793;28;20186;-63
2024/01/15 02:45:46;;;;;;;11.48;7.65;;;;;;;;;;5055757;28;20197;-63
2024/01/15 02:48:13;;;;;;;7.60;6.57;;;;;;;;;;5055529;28;20218;-63
2024/01/15 02:50:40;;;;;;;7.18;6.22;;;;;;;;;;5055406;28;20705;-63
2024/01/15 02:53:07;;;;;;;7.93;6.07;;;;;;;;;;5055370;28;20278;-63
2024/01/15 02:55:34;;;;;;;9.15;6.57;;;;;;;;;;5055602;28;20194;-62
2024/01/15 02:58:02;;;;;;;10.75;6.43;;;;;;;;;;5055503;28;20620;-62
2024/01/15 03:00:29;;;;;;;9.18;5.93;;;;;;;;;;5055389;28;20284;-62
2024/01/15 03:02:56;;;;;;;8.30;5.85;;;;;;;;;;5055338;28;20624;-62
2024/01/15 03:05:23;;;;;;;8.60;5.68;;;;;;;;;;5055276;28;20640;-62
2024/01/15 03:07:50;;;;;;;6.43;5.22;;;;;;;;;;5055305;28;20584;-63
2024/01/15 03:10:17;;;;;;;8.65;6.20;;;;;;;;;;5055364;28;20189;-62
2024/01/15 03:12:44;;;;;;;8.95;6.45;;;;;;;;;;5055211;28;20220;-62
2024/01/15 03:15:13;;;;;;;8.15;6.25;;;;;;;;;;5055095;28;20212;-62
2024/01/15 03:17:40;;;;;;;8.82;5.60;;;;;;;;;;5054989;28;20205;-62
2024/01/15 03:20:07;;;;;;;7.07;5.90;;;;;;;;;;5054815;28;20256;-62
2024/01/15 03:22:34;;;;;;;6.65;5.97;;;;;;;;;;5055218;28;20218;-63
2024/01/15 03:25:01;;;;;;;7.13;5.15;;;;;;;;;;5054716;28;20213;-62
2024/01/15 03:27:28;;;;;;;8.35;6.00;;;;;;;;;;5054933;28;20217;-62
2024/01/15 03:29:55;;;;;;;6.60;4.70;;;;;;;;;;5054748;28;20213;-62
2024/01/15 03:32:23;;;;;;;8.57;6.55;;;;;;;;;;5054606;28;20189;-63
2024/01/15 03:34:52;;;;;;;6.38;5.10;;;;;;;;;;5054902;28;20277;-62
2024/01/15 03:37:19;;;;;;;8.90;5.55;;;;;;;;;;5055090;28;20225;-62
2024/01/15 03:39:46;;;;;;;6.20;5.30;;;;;;;;;;5054740;28;20201;-63
2024/01/15 03:42:14;;;;;;;7.22;5.50;;;;;;;;;;5054489;28;20650;-62
2024/01/15 03:44:41;;;;;;;7.53;4.85;;;;;;;;;;5054513;28;20200;-63
2024/01/15 03:47:08;;;;;;;7.55;5.18;;;;;;;;;;5054349;28;20276;-62
2024/01/15 03:49:36;;;;;;;6.28;5.05;;;;;;;;;;5054509;28;20253;-62
2024/01/15 03:52:03;;;;;;;9.23;5.13;;;;;;;;;;5054524;28;20628;-63
2024/01/15 03:54:30;;;;;;;8.15;4.53;;;;;;;;;;5054207;28;20679;-62
2024/01/15 03:56:57;;;;;;;11.88;5.82;;;;;;;;;;5054348;28;20190;-62
2024/01/15 03:59:24;;;;;;;12.10;4.82;;;;;;;;;;5054185;28;20650;-63
2024/01/15 04:01:51;;;;;;;5.90;5.00;;;;;;;;;;5054125;28;20276;-62
2024/01/15 04:04:18;;;;;;;7.70;5.05;;;;;;;;;;5054289;28;20190;-62
2024/01/15 04:06:47;;;;;;;4.90;4.45;;;;;;;;;;5054233;28;20596;-63
2024/01/15 04:09:14;;;;;;;9.90;5.00;;;;;;;;;;5054129;28;20770;-62
2024/01/15 04:11:41;;;;;;;6.32;4.75;;;;;;;;;;5054249;28;20197;-62
2024/01/15 04:14:07;;;;;;;6.15;5.38;;;;;;;;;;5053844;28;20272;-63
2024/01/15 04:16:34;;;;;;;7.35;5.40;;;;;;;;;;5054137;28;20190;-63
2024/01/15 04:19:01;;;;;;;5.60;5.05;;;;;;;;;;5054034;28;20296;-63
2024/01/15 04:21:28;;;;;;;5.15;4.65;;;;;;;;;;5053761;28;20629;-62
2024/01/15 04:23:57;;;;;;;8.18;4.40;;;;;;;;;;5053854;28;20276;-62
2024/01/15 04:26:23;;;;;;;8.73;4.65;;;;;;;;;;5053733;28;20277;-62
2024/01/15 04:28:50;;;;;;;5.80;4.68;;;;;;;;;;5053435;28;20637;-62
2024/01/15 04:31:24;;;;;;;6.18;4.68;;;;;;;;;;5053543;28;20669;-63
2024/01/15 04:33:51;;;;;;;11.30;5.68;;;;;;;;;;5053492;28;20194;-62
2024/01/15 04:36:18;;;;;;;9.40;5.20;;;;;;;;;;5053599;28;20186;-62
2024/01/15 04:38:45;;;;;;;6.70;5.15;;;;;;;;;;5052892;28;20274;-63
2024/01/15 04:41:14;;;;;;;6.63;4.70;;;;;;;;;;5053365;28;20304;-62
2024/01/15 04:43:41;;;;;;;6.22;4.60;;;;;;;;;;5053523;28;20300;-62
2024/01/15 04:46:08;;;;;;;8.15;4.00;;;;;;;;;;5053507;28;20704;-62
2024/01/15 04:48:35;;;;;;;9.90;4.85;;;;;;;;;;5053373;28;20551;-63
2024/01/15 04:51:02;;;;;;;6.68;4.70;;;;;;;;;;5053309;28;20277;-62
2024/01/15 04:53:29;;;;;;;7.78;4.80;;;;;;;;;;5053216;28;20196;-64
2024/01/15 04:55:56;;;;;;;9.75;4.68;;;;;;;;;;5053150;28;20705;-62
2024/01/15 04:58:26;;;;;;;7.20;3.97;;;;;;;;;;5053048;28;20685;-63
2024/01/15 05:00:54;;;;;;;3.80;3.15;;;;;;;;;;5053205;28;20189;-62
2024/01/15 05:03:21;;;;;;;7.80;4.10;;;;;;;;;;5053154;28;20251;-63
2024/01/15 05:05:48;;;;;;;8.40;4.07;;;;;;;;;;5053061;28;20249;-62
2024/01/15 05:08:15;;;;;;;6.72;3.70;;;;;;;;;;5053051;28;20190;-62
2024/01/15 05:10:41;;;;;;;5.18;3.60;;;;;;;;;;5053060;28;20190;-62
2024/01/15 05:13:08;;;;;;;5.13;3.88;;;;;;;;;;5053101;28;20273;-62
2024/01/15 05:15:37;;;;;;;6.43;3.15;;;;;;;;;;5052947;28;20194;-62
2024/01/15 05:18:04;;;;;;;3.75;3.45;;;;;;;;;;5052961;28;20601;-62
2024/01/15 05:20:31;;;;;;;3.50;2.80;;;;;;;;;;5052916;28;20586;-62
2024/01/15 05:22:58;;;;;;;8.27;4.88;;;;;;;;;;5052942;28;20455;-62
2024/01/15 05:25:25;;;;;;;7.57;3.22;;;;;;;;;;5052868;28;20732;-62
2024/01/15 05:27:52;;;;;;;4.80;2.92;;;;;;;;;;5053078;28;20234;-62
2024/01/15 05:30:19;;;;;;;6.90;3.22;;;;;;;;;;5052819;28;20616;-62
2024/01/15 05:32:47;;;;;;;4.35;3.75;;;;;;;;;;5052709;28;20659;-62
2024/01/15 05:35:14;;;;;;;9.75;3.90;;;;;;;;;;5052640;28;20189;-62
2024/01/15 05:37:41;;;;;;;4.35;3.80;;;;;;;;;;5052497;28;20196;-62
2024/01/15 05:40:08;;;;;;;7.25;4.10;;;;;;;;;;5052813;28;20244;-62
2024/01/15 05:42:35;;;;;;;6.35;3.58;;;;;;;;;;5052569;28;20656;-62
2024/01/15 05:45:04;;;;;;;6.15;3.40;;;;;;;;;;5053101;28;20707;-62
2024/01/15 05:47:31;;;;;;;8.00;3.13;;;;;;;;;;5052562;28;20557;-62
2024/01/15 05:49:59;;;;;;;6.45;3.60;;;;;;;;;;5055667;28;20213;-62
2024/01/15 05:52:26;;;;;;;5.45;3.75;;;;;;;;;;5056734;28;20281;-62
2024/01/15 05:54:53;;;;;;;7.28;3.30;;;;;;;;;;5056716;28;20550;-62
2024/01/15 05:57:20;;;;;;;7.18;3.22;;;;;;;;;;5056556;28;20317;-62
2024/01/15 05:59:47;;;;;;;4.72;2.85;;;;;;;;;;5056548;28;20627;-62
2024/01/15 06:02:14;;;;;;;8.23;3.63;;;;;;;;;;5056371;28;20277;-63
2024/01/15 06:04:41;;;;;;;4.25;2.75;;;;;;;;;;5056237;28;20285;-63
2024/01/15 06:07:09;;;;;;;4.68;2.80;;;;;;;;;;5056606;28;20193;-62
2024/01/15 06:09:38;;;;;;;6.80;2.70;;;;;;;;;;5056384;28;20217;-62
2024/01/15 06:12:05;;;;;;;11.38;2.78;;;;;;;;;;5056331;28;20193;-62
2024/01/15 06:14:32;;;;;;;5.03;3.13;;;;;;;;;;5056252;28;20645;-62
2024/01/15 06:16:59;;;;;;;6.35;3.60;;;;;;;;;;5055950;28;20229;-62
2024/01/15 06:19:26;;;;;;;3.67;2.95;;;;;;;;;;5056622;28;20280;-63
2024/01/15 06:21:53;;;;;;;4.32;2.50;;;;;;;;;;5056018;28;20304;-62
2024/01/15 06:24:21;;;;;;;7.38;3.45;;;;;;;;;;5056147;28;20278;-62
2024/01/15 06:26:50;;;;;;;3.28;2.80;;;;;;;;;;5055962;28;20684;-62
2024/01/15 06:29:17;;;;;;;3.17;2.75;;;;;;;;;;5055716;28;20217;-62
2024/01/15 06:31:44;;;;;;;2.97;2.53;;;;;;;;;;5055630;28;20187;-62
2024/01/15 06:34:11;;;;;;;7.47;2.70;;;;;;;;;;5056127;28;20280;-62
2024/01/15 06:36:38;;;;;;;5.90;2.90;;;;;;;;;;5056093;28;20388;-62
2024/01/15 06:39:05;;;;;;;3.63;2.88;;;;;;;;;;5055692;28;20622;-62
2024/01/15 06:41:33;;;;;;;2.47;1.80;;;;;;;;;;5055594;28;20190;-62
2024/01/15 06:44:00;;;;;;;6.00;2.42;;;;;;;;;;5055338;28;20277;-63
2024/01/15 06:46:27;;;;;;;4.63;1.88;;;;;;;;;;5055877;28;20217;-62
2024/01/15 06:48:54;;;;;;;8.48;3.05;;;;;;;;;;5055202;28;20716;-62
2024/01/15 06:51:21;;;;;;;8.13;2.20;;;;;;;;;;5055419;28;20226;-62
2024/01/15 06:53:48;;;;;;;7.88;4.25;;;;;;;;;;5055358;28;20239;-62
2024/01/15 06:56:15;;;;;;;6.50;2.20;;;;;;;;;;5055231;28;20276;-62
2024/01/15 06:58:43;;;;;;;3.13;2.67;;;;;;;;;;5055338;28;20198;-62
2024/01/15 07:01:10;;;;;;;6.28;2.45;;;;;;;;;;5054725;28;20197;-62
2024/01/15 07:03:37;;;;;;;4.63;2.83;;;;;;;;;;5055250;28;20297;-62
2024/01/15 07:06:04;;;;;;;4.18;1.90;;;;;;;;;;5055236;28;20596;-62
2024/01/15 07:08:31;;;;;;;7.35;2.30;;;;;;;;;;5055073;28;20609;-62
2024/01/15 07:10:58;;;;;;;4.85;1.95;;;;;;;;;;5055028;28;20768;-62
2024/01/15 07:13:25;;;;;;;3.67;2.22;;;;;;;;;;5054795;28;20277;-62
2024/01/15 07:15:53;;;;;;;6.25;2.80;;;;;;;;;;5055018;28;20281;-62
2024/01/15 07:18:20;;;;;;;8.52;2.17;;;;;;;;;;5054851;28;20246;-62
2024/01/15 07:20:47;;;;;;;5.03;1.85;;;;;;;;;;5054796;28;20253;-63
2024/01/15 07:23:14;;;;;;;8.13;3.00;;;;;;;;;;5054858;28;20645;-62
2024/01/15 07:25:41;;;;;;;4.72;2.15;;;;;;;;;;5054602;28;20688;-62
2024/01/15 07:28:08;;;;;;;5.40;1.63;;;;;;;;;;5054825;28;20281;-62
2024/01/15 07:30:35;;;;;;;4.68;2.20;;;;;;;;;;5054694;28;20217;-62
2024/01/15 07:33:04;;;;;;;5.15;2.00;;;;;;;;;;5054635;28;20193;-62
2024/01/15 07:35:31;;;;;;;4.18;1.92;;;;;;;;;;5054590;28;20194;-62
2024/01/15 07:37:58;;;;;;;6.93;1.52;;;;;;;;;;5054654;28;20194;-62
2024/01/15 07:40:25;;;;;;;6.20;1.70;;;;;;;;;;5054400;28;20190;-62
2024/01/15 07:42:52;;;;;;;11.82;2.95;;;;;;;;;;5054574;28;20565;-63
2024/01/15 07:45:19;;;;;;;5.25;1.90;;;;;;;;;;5054405;28;20197;-63
2024/01/15 07:47:46;;;;;;;7.22;2.60;;;;;;;;;;5054490;28;20283;-62
2024/01/15 07:50:14;;;;;;;3.13;1.40;;;;;;;;;;5054244;28;20217;-63
2024/01/15 07:52:42;;;;;;;4.68;1.52;;;;;;;;;;5055729;28;20189;-62
2024/01/15 07:55:09;;;;;;;6.28;1.92;;;;;;;;;;5074019;28;20276;-62
2024/01/15 07:57:36;;;;;;;5.47;1.70;;;;;;;;;;5074412;28;20295;-62
2024/01/15 08:00:04;;;;;;;4.00;2.25;;;;;;;;;;5074050;28;20640;-63
2024/01/15 08:02:32;;;;;;;4.20;1.20;;;;;;;;;;5074158;28;20303;-62
2024/01/15 08:04:59;;;;;;;6.88;2.00;;;;;;;;;;5074087;28;20534;-62
2024/01/15 08:07:27;;;;;;;5.90;1.67;;;;;;;;;;5073823;28;20189;-63
2024/01/15 08:09:54;;;;;;;4.15;1.73;;;;;;;;;;5073801;28;20221;-63
2024/01/15 08:12:22;;;;;;;5.10;2.50;;;;;;;;;;5072916;28;20597;-64
2024/01/15 08:14:49;;;;;;;7.43;2.95;;;;;;;;;;5073700;28;20233;-63
2024/01/15 08:17:16;;;;;;;8.40;1.60;;;;;;;;;;5073787;28;20289;-61
2024/01/15 08:19:43;;;;;;;5.97;1.80;;;;;;;;;;5073422;28;20193;-63
2024/01/15 08:22:10;;;;;;;11.35;2.13;;;;;;;;;;5073696;28;20197;-62
2024/01/15 08:24:39;;;;;;;7.22;2.50;;;;;;;;;;5073468;28;20196;-64
2024/01/15 08:27:06;;;;;;;3.72;1.58;;;;;;;;;;5073732;28;20189;-60
2024/01/15 08:29:34;;;;;;;5.65;1.50;;;;;;;;;;5073492;28;20587;-62
2024/01/15 08:32:01;;;;;;;3.92;1.35;;;;;;;;;;5073365;28;20267;-65
2024/01/15 08:34:28;;;;;;;2.90;1.50;;;;;;;;;;5073567;28;20196;-62
2024/01/15 08:36:55;;;;;;;5.07;2.05;;;;;;;;;;5072872;28;20196;-62
2024/01/15 08:39:22;;;;;;;4.85;2.03;;;;;;;;;;5073478;28;20304;-62
2024/01/15 08:41:50;;;;;;;2.45;1.35;;;;;;;;;;5073306;28;20272;-62
2024/01/15 08:44:18;;;;;;;10.13;2.00;;;;;;;;;;5073208;28;20193;-62
2024/01/15 08:46:45;;;;;;;3.10;1.42;;;;;;;;;;5073228;28;20667;-66
2024/01/15 08:49:12;;;;;;;7.00;1.38;;;;;;;;;;5072915;28;20224;-65
2024/01/15 08:51:39;;;;;;;6.85;1.60;;;;;;;;;;5073486;28;20311;-63
2024/01/15 08:54:08;;;;;;;4.70;1.75;;;;;;;;;;5073152;28;20185;-64
2024/01/15 08:56:35;;;;;;;5.88;1.30;;;;;;;;;;5073119;28;20189;-65
2024/01/15 08:59:03;;;;;;;4.43;1.80;;;;;;;;;;5072946;28;20189;-63
2024/01/15 09:01:30;;;;;;;2.83;1.45;;;;;;;;;;5073029;28;20216;-64
2024/01/15 09:03:57;;;;;;;10.88;1.75;;;;;;;;;;5072996;28;20600;-62
2024/01/15 09:06:24;;;;;;;6.93;1.92;;;;;;;;;;5073506;28;20288;-64
2024/01/15 09:08:51;;;;;;;9.50;2.40;;;;;;;;;;5073228;28;20272;-63
2024/01/15 09:11:18;;;;;;;4.90;1.55;;;;;;;;;;5072992;28;20227;-63
2024/01/15 09:13:45;;;;;;;7.32;1.50;;;;;;;;;;5073036;28;20219;-65
2024/01/15 09:16:13;;;;;;;1.38;1.02;;;;;;;;;;5072774;28;20640;-63
2024/01/15 09:18:40;;;;;;;6.50;1.85;;;;;;;;;;5072902;28;20287;-64
2024/01/15 09:21:07;;;;;;;5.45;1.60;;;;;;;;;;5072434;28;20311;-62
2024/01/15 09:23:35;;;;;;;6.20;1.60;;;;;;;;;;5072731;28;20204;-67
2024/01/15 09:26:02;;;;;;;1.73;1.42;;;;;;;;;;5072450;28;20193;-62
2024/01/15 09:28:29;;;;;;;4.18;1.40;;;;;;;;;;5072702;28;20235;-65
2024/01/15 09:30:56;;;;;;;6.30;1.65;;;;;;;;;;5072495;28;20212;-65
2024/01/15 09:33:24;;;;;;;6.97;1.75;;;;;;;;;;5072907;28;20276;-66
2024/01/15 09:35:51;;;;;;;4.03;2.00;;;;;;;;;;5072699;28;20539;-67
2024/01/15 09:38:19;;;;;;;8.20;2.63;;;;;;;;;;5072770;28;20261;-64
2024/01/15 09:40:47;;;;;;;6.43;1.77;;;;;;;;;;5072678;28;20201;-65
2024/01/15 09:43:14;;;;;;;8.48;2.08;;;;;;;;;;5072556;28;20280;-66
2024/01/15 09:45:41;;;;;;;8.45;2.03;;;;;;;;;;5072887;28;20192;-65
2024/01/15 09:48:09;;;;;;;2.58;1.40;;;;;;;;;;5072536;28;20185;-63
2024/01/15 09:50:37;;;;;;;3.05;2.17;;;;;;;;;;5072571;28;20217;-64
2024/01/15 09:53:05;;;;;;;8.05;1.73;;;;;;;;;;5072482;28;20219;-65
2024/01/15 09:55:33;;;;;;;5.55;2.10;;;;;;;;;;5072155;28;20659;-62
2024/01/15 09:58:01;;;;;;;5.72;1.65;;;;;;;;;;5072422;28;20571;-62
2024/01/15 10:00:28;;;;;;;4.10;1.90;;;;;;;;;;5072846;28;20189;-63
2024/01/15 10:02:55;;;;;;;5.18;1.60;;;;;;;;;;5072485;28;20196;-65
2024/01/15 10:05:22;;;;;;;3.47;1.70;;;;;;;;;;5072239;28;20641;-63
2024/01/15 10:07:51;;;;;;;4.00;2.10;;;;;;;;;;5072467;28;20185;-63
2024/01/15 10:10:18;;;;;;;3.17;1.52;;;;;;;;;;5072198;28;20305;-63
2024/01/15 10:12:45;;;;;;;1.83;1.60;;;;;;;;;;5072235;28;20195;-64
2024/01/15 10:15:12;;;;;;;7.68;1.63;;;;;;;;;;5072240;28;20602;-64
2024/01/15 10:17:39;;;;;;;5.78;3.17;;;;;;;;;;5072381;28;20185;-65
2024/01/15 10:20:09;;;;;;;2.58;1.45;;;;;;;;;;5072073;28;20256;-65
2024/01/15 10:22:38;;;;;;;3.75;1.45;;;;;;;;;;5072098;28;20284;-65
2024/01/15 10:25:07;;;;;;;7.13;1.23;;;;;;;;;;5072144;28;20529;-67
2024/01/15 10:27:34;;;;;;;5.85;1.40;;;;;;;;;;5072095;28;20289;-65
2024/01/15 10:30:02;;;;;;;3.83;1.25;;;;;;;;;;5072056;28;20300;-66
2024/01/15 10:32:29;;;;;;;4.75;1.80;;;;;;;;;;5072238;28;20193;-63
2024/01/15 10:34:56;;;;;;;2.75;1.60;;;;;;;;;;5072184;28;20195;-63
2024/01/15 10:37:25;;;;;;;1.70;1.60;;;;;;;;;;5075727;28;20280;-63
2024/01/15 10:39:52;;;;;;;3.25;1.33;;;;;;;;;;5075863;28;20196;-68
2024/01/15 10:42:20;;;;;;;3.58;2.40;;;;;;;;;;5075716;28;20193;-66
2024/01/15 10:44:47;;;;;;;3.88;1.60;;;;;;;;;;5075631;28;20276;-64
2024/01/15 10:47:15;;;;;;;1.58;1.30;;;;;;;;;;5075545;28;20242;-61
2024/01/15 10:49:42;;;;;;;5.03;1.60;;;;;;;;;;5075435;28;20193;-62
2024/01/15 10:52:09;;;;;;;2.00;1.85;;;;;;;;;;5075464;28;20351;-60
2024/01/15 10:54:36;;;;;;;3.63;1.42;;;;;;;;;;5075110;28;20199;-62
2024/01/15 10:57:05;;;;;;;2.58;1.45;;;;;;;;;;5075422;28;20185;-65
2024/01/15 10:59:34;;;;;;;2.10;1.17;;;;;;;;;;5075374;28;20239;-64
2024/01/15 11:02:01;;;;;;;7.53;1.55;;;;;;;;;;5075296;28;20193;-68
2024/01/15 11:04:28;;;;;;;6.38;1.10;;;;;;;;;;5074873;28;20611;-65
2024/01/15 11:06:55;;;;;;;1.63;1.10;;;;;;;;;;5075412;28;20193;-62
2024/01/15 11:09:22;;;;;;;1.33;1.15;;;;;;;;;;5075303;28;20197;-66
2024/01/15 11:11:52;;;;;;;1.30;1.20;;;;;;;;;;5075031;28;20691;-64
2024/01/15 11:14:43;;;;;;;3.92;1.85;;;;;;;;;;5075126;28;20199;-62
2024/01/15 11:17:10;;;;;;;2.25;1.30;;;;;;;;;;5075044;28;20660;-64
2024/01/15 11:19:39;;;;;;;2.75;1.33;;;;;;;;;;5075027;28;20280;-64
2024/01/15 11:22:07;;;;;;;2.45;1.42;;;;;;;;;;5074865;28;20225;-63
2024/01/15 11:24:35;;;;;;;2.83;1.70;;;;;;;;;;5074300;28;20450;-62
2024/01/15 11:27:02;;;;;;;4.45;1.75;;;;;;;;;;5074636;28;20454;-64
2024/01/15 11:29:34;;;;;;;4.38;1.60;;;;;;;;;;5074568;28;20276;-61
2024/01/15 11:32:04;;;;;;;1.10;1.00;;;;;;;;;;5074878;28;20572;-61
2024/01/15 11:34:50;;;;;;;2.03;1.45;;;;;;;;;;5075033;28;20276;-61
2024/01/15 11:37:17;;;;;;;3.25;1.10;;;;;;;;;;5074675;28;20297;-59
2024/01/15 11:39:44;;;;;;;1.42;1.23;;;;;;;;;;5074513;28;20613;-63
2024/01/15 11:42:11;;;;;;;1.50;1.00;;;;;;;;;;5074319;28;20221;-63
2024/01/15 11:44:38;;;;;;;9.80;1.73;;;;;;;;;;5074450;28;20675;-61
2024/01/15 11:47:07;;;;;;;2.22;1.15;;;;;;;;;;5074294;28;20239;-63
2024/01/15 11:49:46;;;;;;;1.60;1.00;;;;;;;;;;5074348;28;20687;-63
2024/01/15 11:52:13;;;;;;;1.52;1.10;;;;;;;;;;5074190;28;20592;-64
2024/01/15 11:54:41;;;;;;;1.48;1.10;;;;;;;;;;5074310;28;20276;-64
2024/01/15 11:57:11;;;;;;;1.20;1.10;;;;;;;;;;5074307;28;20608;-64
2024/01/15 11:59:38;;;;;;;2.55;1.40;;;;;;;;;;5074350;28;20281;-64
2024/01/15 12:02:06;;;;;;;2.05;1.20;;;;;;;;;;5074009;28;20733;-63
2024/01/15 12:04:33;;;;;;;3.03;1.40;;;;;;;;;;5074116;28;20193;-63
2024/01/15 12:07:00;;;;;;;3.20;1.85;;;;;;;;;;5073963;28;20293;-62
2024/01/15 12:09:27;;;;;;;1.30;1.20;;;;;;;;;;5073862;28;20193;-66
2024/01/15 12:11:59;;;;;;;1.23;1.13;;;;;;;;;;5074017;28;20217;-64
2024/01/15 12:14:29;;;;;;;1.80;1.70;;;;;;;;;;5074074;28;20193;-64
2024/01/15 12:16:56;;;;;;;1.58;1.10;;;;;;;;;;5074054;28;20225;-62
2024/01/15 12:19:24;;;;;;;1.48;1.38;;;;;;;;;;5073711;28;20196;-64
2024/01/15 12:21:52;;;;;;;3.05;1.50;;;;;;;;;;5073576;28;20707;-64
2024/01/15 12:24:19;;;;;;;1.63;1.38;;;;;;;;;;5073813;28;20209;-63
2024/01/15 12:26:45;;;;;;;1.65;1.55;;;;;;;;;;5073633;28;20227;-65
2024/01/15 12:29:12;;;;;;;1.65;1.55;;;;;;;;;;5073731;28;20197;-63
2024/01/15 12:31:39;;;;;;;1.70;1.60;;;;;;;;;;5073516;28;20213;-63
2024/01/15 12:34:07;;;;;;;2.90;1.80;;;;;;;;;;5073274;28;20272;-62
2024/01/15 12:36:35;;;;;;;1.98;1.40;;;;;;;;;;5073509;28;20280;-62
2024/01/15 12:39:02;;;;;;;1.77;1.20;;;;;;;;;;5073332;28;20200;-68
2024/01/15 12:41:29;;;;;;;3.17;1.42;;;;;;;;;;5073470;28;20277;-65
2024/01/15 12:43:56;;;;;;;2.05;1.33;;;;;;;;;;5073235;28;20653;-62
2024/01/15 12:46:25;;;;;;;1.30;1.20;;;;;;;;;;5073259;28;20642;-62
2024/01/15 12:48:51;;;;;;;2.45;1.40;;;;;;;;;;5073153;28;20200;-62
2024/01/15 12:51:18;;;;;;;1.65;1.55;;;;;;;;;;5073267;28;20307;-63
2024/01/15 12:53:47;;;;;;;1.95;1.65;;;;;;;;;;5073170;28;20280;-64
2024/01/15 12:56:14;;;;;;;1.92;1.40;;;;;;;;;;5072966;28;20344;-64
2024/01/15 12:58:40;;;;;;;1.88;0.95;;;;;;;;;;5072461;28;20196;-63
2024/01/15 13:01:07;;;;;;;1.23;1.05;;;;;;;;;;5072900;28;20195;-64
2024/01/15 13:03:34;;;;;;;2.35;1.27;;;;;;;;;;5072808;28;20276;-62
2024/01/15 13:06:01;;;;;;;2.00;1.15;;;;;;;;;;5072971;28;20285;-60
2024/01/15 13:08:29;;;;;;;1.43;1.10;;;;;;;;;;5072376;28;20533;-62
2024/01/15 13:10:58;;;;;;;1.35;1.00;;;;;;;;;;5072614;28;21067;-62
2024/01/15 13:13:25;;;;;;;3.47;1.10;;;;;;;;;;5072737;28;20229;-62
2024/01/15 13:15:52;;;;;;;1.75;1.52;;;;;;;;;;5071758;28;20536;-61
2024/01/15 13:18:19;;;;;;;3.00;1.10;;;;;;;;;;5072948;28;20216;-62
2024/01/15 13:20:46;;;;;;;2.10;1.20;;;;;;;;;;5072499;28;20544;-61
2024/01/15 13:23:13;;;;;;;2.88;1.20;;;;;;;;;;5072732;28;20185;-60
2024/01/15 13:25:40;;;;;;;2.47;1.70;;;;;;;;;;5072722;28;20619;-62
2024/01/15 13:28:08;;;;;;;1.10;1.00;;;;;;;;;;5072564;28;20185;-63
2024/01/15 13:30:35;;;;;;;2.30;2.15;;;;;;;;;;5072313;28;20243;-62
2024/01/15 13:33:04;;;;;;;1.83;1.23;;;;;;;;;;5072590;28;20304;-62
2024/01/15 13:35:31;;;;;;;1.30;1.20;;;;;;;;;;5072668;28;20189;-61
2024/01/15 13:37:59;;;;;;;1.25;1.15;;;;;;;;;;5072566;28;20239;-61
2024/01/15 13:40:26;;;;;;;2.25;1.20;;;;;;;;;;5072494;28;20236;-62
2024/01/15 13:42:54;;;;;;;2.85;1.00;;;;;;;;;;5072466;28;20603;-61
2024/01/15 13:45:23;;;;;;;1.70;1.60;;;;;;;;;;5072519;28;20604;-62
2024/01/15 13:47:50;;;;;;;2.70;1.40;;;;;;;;;;5072646;28;20549;-62
2024/01/15 13:50:17;;;;;;;2.88;1.80;;;;;;;;;;5072451;28;20231;-61
2024/01/15 13:52:44;;;;;;;2.80;1.95;;;;;;;;;;5072274;28;20565;-61
2024/01/15 13:55:11;;;;;;;2.60;1.58;;;;;;;;;;5072326;28;20201;-62
2024/01/15 13:57:38;;;;;;;2.15;1.60;;;;;;;;;;5072353;28;20276;-62
2024/01/15 14:00:11;;;;;;;1.85;1.55;;;;;;;;;;5072423;28;20193;-63
2024/01/15 14:02:39;;;;;;;1.63;1.40;;;;;;;;;;5072548;28;20648;-62
2024/01/15 14:05:07;;;;;;;1.40;1.30;;;;;;;;;;5072308;28;20192;-62
2024/01/15 14:07:34;;;;;;;10.32;4.93;;;;;;;;;;5072296;28;20194;-63
2024/01/15 14:10:01;;;;;;;4.40;2.47;;;;;;;;;;5072305;28;20196;-63
2024/01/15 14:12:28;;;;;;;2.20;2.00;;;;;;;;;;5076284;28;20243;-63
2024/01/15 14:14:55;;;;;;;1.58;1.48;;;;;;;;;;5076301;28;20200;-63
2024/01/15 14:17:22;;;;;;;4.47;2.38;;;;;;;;;;5076168;28;20552;-63
2024/01/15 14:19:50;;;;;;;2.13;1.70;;;;;;;;;;5075891;28;20185;-64
2024/01/15 14:22:17;;;;;;;3.72;2.00;;;;;;;;;;5075728;28;20281;-63
2024/01/15 14:24:44;;;;;;;2.13;1.75;;;;;;;;;;5075787;28;20205;-63
2024/01/15 14:27:11;;;;;;;3.25;1.58;;;;;;;;;;5076042;28;20276;-63
2024/01/15 14:29:38;;;;;;;2.17;1.80;;;;;;;;;;5075824;28;20192;-63
2024/01/15 14:32:05;;;;;;;2.47;2.03;;;;;;;;;;5075691;28;20307;-63
2024/01/15 14:34:32;;;;;;;4.25;1.55;;;;;;;;;;5075749;28;20197;-62
2024/01/15 14:37:01;;;;;;;5.15;2.00;;;;;;;;;;5075699;28;20277;-63
2024/01/15 14:39:27;;;;;;;4.13;1.80;;;;;;;;;;5075846;28;20276;-63
2024/01/15 14:41:54;;;;;;;2.50;1.70;;;;;;;;;;5076008;28;20864;-63
2024/01/15 14:44:22;;;;;;;1.95;1.83;;;;;;;;;;5075652;28;20213;-63
2024/01/15 14:46:50;;;;;;;2.45;1.83;;;;;;;;;;5075723;28;20193;-63
2024/01/15 14:49:17;;;;;;;1.92;1.55;;;;;;;;;;5075416;28;20197;-63